sensor_id;sensor_type;location;lat;lon;timestamp;P1;durP1;ratioP1;P2;durP2;ratioP2
15848;SDS011;8024;48.708;9.394;2023-04-24T00:01:49;2.63;;;0.70;;
15848;SDS011;8024;48.708;9.394;2023-04-24T00:04:17;0.70;;;0.70;;
15848;SDS011;8024;48.708;9.394;2023-04-24T00:06:44;0.57;;;0.57;;
15848;SDS011;8024;48.708;9.394;2023-04-24T00:09:14;1.33;;;0.70;;
15848;SDS011;8024;48.708;9.394;2023-04-24T00:11:43;1.27;;;0.70;;
15848;SDS011;8024;48.708;9.394;2023-04-24T00:14:10;0.60;;;0.60;;
15848;SDS011;8024;48.708;9.394;2023-04-24T00:16:37;0.60;;;0.60;;
15848;SDS011;8024;48.708;9.394;2023-04-24T00:19:04;1.47;;;0.50;;
15848;SDS011;8024;48.708;9.394;2023-04-24T00:21:31;0.63;;;0.50;;
15848;SDS011;8024;48.708;9.394;2023-04-24T00:23:59;0.50;;;0.50;;
15848;SDS011;8024;48.708;9.394;2023-04-24T00:26:36;1.77;;;0.63;;
15848;SDS011;8024;48.708;9.394;2023-04-24T00:29:05;0.77;;;0.50;;
15848;SDS011;8024;48.708;9.394;2023-04-24T00:31:32;0.73;;;0.50;;
15848;SDS011;8024;48.708;9.394;2023-04-24T00:34:00;0.90;;;0.60;;
15848;SDS011;8024;48.708;9.394;2023-04-24T00:36:27;1.07;;;0.47;;
15848;SDS011;8024;48.708;9.394;2023-04-24T00:38:55;0.57;;;0.43;;
15848;SDS011;8024;48.708;9.394;2023-04-24T00:41:23;0.40;;;0.40;;
15848;SDS011;8024;48.708;9.394;2023-04-24T00:43:51;2.20;;;0.67;;
15848;SDS011;8024;48.708;9.394;2023-04-24T00:46:20;0.30;;;0.30;;
15848;SDS011;8024;48.708;9.394;2023-04-24T00:48:47;1.00;;;0.60;;
15848;SDS011;8024;48.708;9.394;2023-04-24T00:51:15;0.73;;;0.30;;
15848;SDS011;8024;48.708;9.394;2023-04-24T00:53:42;0.70;;;0.50;;
15848;SDS011;8024;48.708;9.394;2023-04-24T00:56:09;2.40;;;0.40;;
15848;SDS011;8024;48.708;9.394;2023-04-24T00:58:36;1.17;;;0.40;;
15848;SDS011;8024;48.708;9.394;2023-04-24T01:01:04;0.60;;;0.33;;
15848;SDS011;8024;48.708;9.394;2023-04-24T01:03:34;0.53;;;0.40;;
15848;SDS011;8024;48.708;9.394;2023-04-24T01:06:02;0.80;;;0.30;;
15848;SDS011;8024;48.708;9.394;2023-04-24T01:08:31;1.70;;;0.50;;
15848;SDS011;8024;48.708;9.394;2023-04-24T01:10:58;0.43;;;0.30;;
15848;SDS011;8024;48.708;9.394;2023-04-24T01:13:27;1.37;;;0.40;;
15848;SDS011;8024;48.708;9.394;2023-04-24T01:15:55;1.40;;;0.30;;
15848;SDS011;8024;48.708;9.394;2023-04-24T01:18:22;0.87;;;0.87;;
15848;SDS011;8024;48.708;9.394;2023-04-24T01:20:51;1.33;;;0.30;;
15848;SDS011;8024;48.708;9.394;2023-04-24T01:23:22;0.40;;;0.40;;
15848;SDS011;8024;48.708;9.394;2023-04-24T01:25:50;0.40;;;0.30;;
15848;SDS011;8024;48.708;9.394;2023-04-24T01:28:18;0.67;;;0.33;;
15848;SDS011;8024;48.708;9.394;2023-04-24T01:30:45;0.57;;;0.50;;
15848;SDS011;8024;48.708;9.394;2023-04-24T01:33:13;0.40;;;0.40;;
15848;SDS011;8024;48.708;9.394;2023-04-24T01:35:40;0.83;;;0.50;;
15848;SDS011;8024;48.708;9.394;2023-04-24T01:38:07;0.37;;;0.30;;
15848;SDS011;8024;48.708;9.394;2023-04-24T01:40:36;0.30;;;0.30;;
15848;SDS011;8024;48.708;9.394;2023-04-24T01:43:03;0.93;;;0.30;;
15848;SDS011;8024;48.708;9.394;2023-04-24T01:45:31;0.87;;;0.30;;
15848;SDS011;8024;48.708;9.394;2023-04-24T01:47:58;0.53;;;0.37;;
15848;SDS011;8024;48.708;9.394;2023-04-24T01:50:26;0.50;;;0.40;;
15848;SDS011;8024;48.708;9.394;2023-04-24T01:52:53;0.47;;;0.43;;
15848;SDS011;8024;48.708;9.394;2023-04-24T01:55:20;0.40;;;0.40;;
15848;SDS011;8024;48.708;9.394;2023-04-24T01:57:49;1.77;;;0.37;;
15848;SDS011;8024;48.708;9.394;2023-04-24T02:00:18;0.40;;;0.40;;
15848;SDS011;8024;48.708;9.394;2023-04-24T02:02:45;1.60;;;0.30;;
15848;SDS011;8024;48.708;9.394;2023-04-24T02:05:12;0.80;;;0.50;;
15848;SDS011;8024;48.708;9.394;2023-04-24T02:07:40;0.63;;;0.63;;
15848;SDS011;8024;48.708;9.394;2023-04-24T02:10:07;0.40;;;0.40;;
15848;SDS011;8024;48.708;9.394;2023-04-24T02:12:35;1.37;;;0.53;;
15848;SDS011;8024;48.708;9.394;2023-04-24T02:15:04;0.37;;;0.37;;
15848;SDS011;8024;48.708;9.394;2023-04-24T02:17:31;0.30;;;0.30;;
15848;SDS011;8024;48.708;9.394;2023-04-24T02:19:59;0.20;;;0.20;;
15848;SDS011;8024;48.708;9.394;2023-04-24T02:22:26;0.63;;;0.40;;
15848;SDS011;8024;48.708;9.394;2023-04-24T02:24:53;0.90;;;0.47;;
15848;SDS011;8024;48.708;9.394;2023-04-24T02:27:20;1.80;;;0.50;;
15848;SDS011;8024;48.708;9.394;2023-04-24T02:29:47;0.50;;;0.50;;
15848;SDS011;8024;48.708;9.394;2023-04-24T02:32:15;1.20;;;0.30;;
15848;SDS011;8024;48.708;9.394;2023-04-24T02:34:43;0.43;;;0.40;;
15848;SDS011;8024;48.708;9.394;2023-04-24T02:37:10;0.50;;;0.40;;
15848;SDS011;8024;48.708;9.394;2023-04-24T02:39:37;0.40;;;0.40;;
15848;SDS011;8024;48.708;9.394;2023-04-24T02:42:04;3.10;;;0.57;;
15848;SDS011;8024;48.708;9.394;2023-04-24T02:44:33;1.13;;;0.33;;
15848;SDS011;8024;48.708;9.394;2023-04-24T02:47:00;0.80;;;0.40;;
15848;SDS011;8024;48.708;9.394;2023-04-24T02:49:28;0.63;;;0.40;;
15848;SDS011;8024;48.708;9.394;2023-04-24T02:51:55;0.97;;;0.50;;
15848;SDS011;8024;48.708;9.394;2023-04-24T02:54:22;0.83;;;0.40;;
15848;SDS011;8024;48.708;9.394;2023-04-24T02:56:50;0.97;;;0.40;;
15848;SDS011;8024;48.708;9.394;2023-04-24T02:59:17;1.90;;;0.50;;
15848;SDS011;8024;48.708;9.394;2023-04-24T03:01:44;0.60;;;0.60;;
15848;SDS011;8024;48.708;9.394;2023-04-24T03:04:11;0.80;;;0.40;;
15848;SDS011;8024;48.708;9.394;2023-04-24T03:06:39;1.33;;;0.53;;
15848;SDS011;8024;48.708;9.394;2023-04-24T03:09:06;0.50;;;0.40;;
15848;SDS011;8024;48.708;9.394;2023-04-24T03:11:34;0.40;;;0.40;;
15848;SDS011;8024;48.708;9.394;2023-04-24T03:14:01;0.83;;;0.43;;
15848;SDS011;8024;48.708;9.394;2023-04-24T03:16:28;1.17;;;0.50;;
15848;SDS011;8024;48.708;9.394;2023-04-24T03:18:55;1.13;;;0.50;;
15848;SDS011;8024;48.708;9.394;2023-04-24T03:21:22;1.03;;;0.40;;
15848;SDS011;8024;48.708;9.394;2023-04-24T03:23:51;3.13;;;0.60;;
15848;SDS011;8024;48.708;9.394;2023-04-24T03:26:18;0.93;;;0.40;;
15848;SDS011;8024;48.708;9.394;2023-04-24T03:28:45;0.40;;;0.40;;
15848;SDS011;8024;48.708;9.394;2023-04-24T03:31:12;0.40;;;0.40;;
15848;SDS011;8024;48.708;9.394;2023-04-24T03:33:40;0.87;;;0.47;;
15848;SDS011;8024;48.708;9.394;2023-04-24T03:36:07;0.60;;;0.60;;
15848;SDS011;8024;48.708;9.394;2023-04-24T03:38:34;0.53;;;0.40;;
15848;SDS011;8024;48.708;9.394;2023-04-24T03:41:03;2.43;;;0.30;;
15848;SDS011;8024;48.708;9.394;2023-04-24T03:43:30;0.40;;;0.37;;
15848;SDS011;8024;48.708;9.394;2023-04-24T03:45:58;0.30;;;0.30;;
15848;SDS011;8024;48.708;9.394;2023-04-24T03:48:25;0.73;;;0.40;;
15848;SDS011;8024;48.708;9.394;2023-04-24T03:50:52;1.50;;;0.40;;
15848;SDS011;8024;48.708;9.394;2023-04-24T03:53:19;0.50;;;0.50;;
15848;SDS011;8024;48.708;9.394;2023-04-24T03:55:47;0.40;;;0.40;;
15848;SDS011;8024;48.708;9.394;2023-04-24T03:58:15;1.27;;;0.60;;
15848;SDS011;8024;48.708;9.394;2023-04-24T04:00:42;1.60;;;0.67;;
15848;SDS011;8024;48.708;9.394;2023-04-24T04:03:11;1.43;;;0.40;;
15848;SDS011;8024;48.708;9.394;2023-04-24T04:05:39;1.10;;;0.70;;
15848;SDS011;8024;48.708;9.394;2023-04-24T04:08:06;2.33;;;0.40;;
15848;SDS011;8024;48.708;9.394;2023-04-24T04:10:33;0.43;;;0.30;;
15848;SDS011;8024;48.708;9.394;2023-04-24T04:13:00;2.80;;;0.80;;
15848;SDS011;8024;48.708;9.394;2023-04-24T04:15:29;0.70;;;0.70;;
15848;SDS011;8024;48.708;9.394;2023-04-24T04:17:56;1.33;;;0.73;;
15848;SDS011;8024;48.708;9.394;2023-04-24T04:20:23;0.83;;;0.60;;
15848;SDS011;8024;48.708;9.394;2023-04-24T04:22:51;0.97;;;0.63;;
15848;SDS011;8024;48.708;9.394;2023-04-24T04:25:18;0.60;;;0.50;;
15848;SDS011;8024;48.708;9.394;2023-04-24T04:27:45;0.80;;;0.40;;
15848;SDS011;8024;48.708;9.394;2023-04-24T04:30:13;1.27;;;0.63;;
15848;SDS011;8024;48.708;9.394;2023-04-24T04:32:42;0.83;;;0.50;;
15848;SDS011;8024;48.708;9.394;2023-04-24T04:35:09;0.83;;;0.43;;
15848;SDS011;8024;48.708;9.394;2023-04-24T04:37:36;2.27;;;0.70;;
15848;SDS011;8024;48.708;9.394;2023-04-24T04:40:05;1.33;;;0.63;;
15848;SDS011;8024;48.708;9.394;2023-04-24T04:42:36;1.83;;;0.70;;
15848;SDS011;8024;48.708;9.394;2023-04-24T04:45:05;1.33;;;0.60;;
15848;SDS011;8024;48.708;9.394;2023-04-24T04:47:36;1.80;;;0.40;;
15848;SDS011;8024;48.708;9.394;2023-04-24T04:50:06;0.70;;;0.70;;
15848;SDS011;8024;48.708;9.394;2023-04-24T04:52:34;0.70;;;0.70;;
15848;SDS011;8024;48.708;9.394;2023-04-24T04:55:01;2.53;;;1.20;;
15848;SDS011;8024;48.708;9.394;2023-04-24T04:57:28;2.47;;;0.53;;
15848;SDS011;8024;48.708;9.394;2023-04-24T04:59:56;0.60;;;0.40;;
15848;SDS011;8024;48.708;9.394;2023-04-24T05:02:23;0.90;;;0.63;;
15848;SDS011;8024;48.708;9.394;2023-04-24T05:04:50;1.10;;;0.63;;
15848;SDS011;8024;48.708;9.394;2023-04-24T05:07:19;0.73;;;0.63;;
15848;SDS011;8024;48.708;9.394;2023-04-24T05:09:46;0.70;;;0.70;;
15848;SDS011;8024;48.708;9.394;2023-04-24T05:12:13;1.10;;;0.80;;
15848;SDS011;8024;48.708;9.394;2023-04-24T05:14:40;0.60;;;0.60;;
15848;SDS011;8024;48.708;9.394;2023-04-24T05:17:07;1.10;;;1.00;;
15848;SDS011;8024;48.708;9.394;2023-04-24T05:19:35;1.10;;;1.00;;
15848;SDS011;8024;48.708;9.394;2023-04-24T05:22:06;0.67;;;0.67;;
15848;SDS011;8024;48.708;9.394;2023-04-24T05:24:36;1.13;;;0.90;;
15848;SDS011;8024;48.708;9.394;2023-04-24T05:27:03;0.80;;;0.70;;
15848;SDS011;8024;48.708;9.394;2023-04-24T05:29:30;1.30;;;1.20;;
15848;SDS011;8024;48.708;9.394;2023-04-24T05:31:58;1.03;;;0.97;;
15848;SDS011;8024;48.708;9.394;2023-04-24T05:34:26;1.17;;;0.93;;
15848;SDS011;8024;48.708;9.394;2023-04-24T05:36:53;1.20;;;1.20;;
15848;SDS011;8024;48.708;9.394;2023-04-24T05:39:20;0.80;;;0.80;;
15848;SDS011;8024;48.708;9.394;2023-04-24T05:41:51;1.47;;;1.37;;
15848;SDS011;8024;48.708;9.394;2023-04-24T05:44:18;2.90;;;1.17;;
15848;SDS011;8024;48.708;9.394;2023-04-24T05:46:45;1.10;;;1.10;;
15848;SDS011;8024;48.708;9.394;2023-04-24T05:49:12;1.57;;;1.40;;
15848;SDS011;8024;48.708;9.394;2023-04-24T05:51:39;1.73;;;1.40;;
15848;SDS011;8024;48.708;9.394;2023-04-24T05:54:07;1.37;;;0.97;;
15848;SDS011;8024;48.708;9.394;2023-04-24T05:56:35;1.60;;;1.30;;
15848;SDS011;8024;48.708;9.394;2023-04-24T05:59:04;2.13;;;1.07;;
15848;SDS011;8024;48.708;9.394;2023-04-24T06:01:31;1.70;;;1.23;;
15848;SDS011;8024;48.708;9.394;2023-04-24T06:03:58;1.33;;;1.03;;
15848;SDS011;8024;48.708;9.394;2023-04-24T06:06:25;1.63;;;1.30;;
15848;SDS011;8024;48.708;9.394;2023-04-24T06:08:53;2.20;;;1.40;;
15848;SDS011;8024;48.708;9.394;2023-04-24T06:11:21;1.57;;;1.20;;
15848;SDS011;8024;48.708;9.394;2023-04-24T06:13:49;2.73;;;0.90;;
15848;SDS011;8024;48.708;9.394;2023-04-24T06:16:18;2.37;;;1.90;;
15848;SDS011;8024;48.708;9.394;2023-04-24T06:18:45;1.00;;;1.00;;
15848;SDS011;8024;48.708;9.394;2023-04-24T06:21:13;1.00;;;1.00;;
15848;SDS011;8024;48.708;9.394;2023-04-24T06:23:42;1.23;;;1.10;;
15848;SDS011;8024;48.708;9.394;2023-04-24T06:26:11;1.30;;;1.20;;
15848;SDS011;8024;48.708;9.394;2023-04-24T06:28:38;2.50;;;1.33;;
15848;SDS011;8024;48.708;9.394;2023-04-24T06:31:09;2.20;;;1.00;;
15848;SDS011;8024;48.708;9.394;2023-04-24T06:33:38;1.20;;;1.10;;
15848;SDS011;8024;48.708;9.394;2023-04-24T06:36:05;1.53;;;1.40;;
15848;SDS011;8024;48.708;9.394;2023-04-24T06:38:33;1.03;;;1.03;;
15848;SDS011;8024;48.708;9.394;2023-04-24T06:41:00;2.10;;;1.30;;
15848;SDS011;8024;48.708;9.394;2023-04-24T06:43:28;1.20;;;1.20;;
15848;SDS011;8024;48.708;9.394;2023-04-24T06:45:55;1.50;;;1.40;;
15848;SDS011;8024;48.708;9.394;2023-04-24T06:48:23;2.00;;;1.50;;
15848;SDS011;8024;48.708;9.394;2023-04-24T06:50:52;1.40;;;1.30;;
15848;SDS011;8024;48.708;9.394;2023-04-24T06:53:19;1.53;;;1.43;;
15848;SDS011;8024;48.708;9.394;2023-04-24T06:55:46;1.23;;;1.17;;
15848;SDS011;8024;48.708;9.394;2023-04-24T06:58:14;1.87;;;1.33;;
15848;SDS011;8024;48.708;9.394;2023-04-24T07:00:41;2.57;;;1.20;;
15848;SDS011;8024;48.708;9.394;2023-04-24T07:03:08;1.00;;;1.00;;
15848;SDS011;8024;48.708;9.394;2023-04-24T07:05:35;1.07;;;1.03;;
15848;SDS011;8024;48.708;9.394;2023-04-24T07:08:04;1.00;;;1.00;;
15848;SDS011;8024;48.708;9.394;2023-04-24T07:10:33;0.97;;;0.97;;
15848;SDS011;8024;48.708;9.394;2023-04-24T07:13:01;1.03;;;1.00;;
15848;SDS011;8024;48.708;9.394;2023-04-24T07:15:28;2.77;;;1.30;;
15848;SDS011;8024;48.708;9.394;2023-04-24T07:17:55;1.83;;;1.03;;
15848;SDS011;8024;48.708;9.394;2023-04-24T07:20:23;0.97;;;0.80;;
15848;SDS011;8024;48.708;9.394;2023-04-24T07:22:50;1.27;;;0.90;;
15848;SDS011;8024;48.708;9.394;2023-04-24T07:25:20;1.10;;;0.63;;
15848;SDS011;8024;48.708;9.394;2023-04-24T07:27:47;1.50;;;1.00;;
15848;SDS011;8024;48.708;9.394;2023-04-24T07:30:14;1.13;;;0.87;;
15848;SDS011;8024;48.708;9.394;2023-04-24T07:32:41;1.47;;;1.20;;
15848;SDS011;8024;48.708;9.394;2023-04-24T07:35:09;1.50;;;1.00;;
15848;SDS011;8024;48.708;9.394;2023-04-24T07:37:36;1.50;;;1.40;;
15848;SDS011;8024;48.708;9.394;2023-04-24T07:40:04;1.87;;;1.30;;
15848;SDS011;8024;48.708;9.394;2023-04-24T07:42:33;1.60;;;1.50;;
15848;SDS011;8024;48.708;9.394;2023-04-24T07:45:01;1.10;;;1.10;;
15848;SDS011;8024;48.708;9.394;2023-04-24T07:47:28;1.77;;;1.20;;
15848;SDS011;8024;48.708;9.394;2023-04-24T07:49:56;3.13;;;1.00;;
15848;SDS011;8024;48.708;9.394;2023-04-24T07:52:23;0.97;;;0.60;;
15848;SDS011;8024;48.708;9.394;2023-04-24T07:54:50;1.80;;;1.57;;
15848;SDS011;8024;48.708;9.394;2023-04-24T07:57:23;2.13;;;1.70;;
15848;SDS011;8024;48.708;9.394;2023-04-24T07:59:52;1.53;;;1.43;;
15848;SDS011;8024;48.708;9.394;2023-04-24T08:02:19;1.37;;;1.37;;
15848;SDS011;8024;48.708;9.394;2023-04-24T08:04:51;0.87;;;0.83;;
15848;SDS011;8024;48.708;9.394;2023-04-24T08:07:19;0.80;;;0.80;;
15848;SDS011;8024;48.708;9.394;2023-04-24T08:09:46;0.87;;;0.80;;
15848;SDS011;8024;48.708;9.394;2023-04-24T08:12:13;0.70;;;0.70;;
15848;SDS011;8024;48.708;9.394;2023-04-24T08:14:41;0.77;;;0.77;;
15848;SDS011;8024;48.708;9.394;2023-04-24T08:17:09;0.80;;;0.77;;
15848;SDS011;8024;48.708;9.394;2023-04-24T08:19:36;0.83;;;0.80;;
15848;SDS011;8024;48.708;9.394;2023-04-24T08:22:03;0.87;;;0.80;;
15848;SDS011;8024;48.708;9.394;2023-04-24T08:24:31;0.60;;;0.60;;
15848;SDS011;8024;48.708;9.394;2023-04-24T08:26:58;0.80;;;0.80;;
15848;SDS011;8024;48.708;9.394;2023-04-24T08:29:26;1.17;;;1.00;;
15848;SDS011;8024;48.708;9.394;2023-04-24T08:31:53;1.80;;;0.60;;
15848;SDS011;8024;48.708;9.394;2023-04-24T08:34:21;1.30;;;1.07;;
15848;SDS011;8024;48.708;9.394;2023-04-24T08:36:49;0.90;;;0.90;;
15848;SDS011;8024;48.708;9.394;2023-04-24T08:39:16;0.70;;;0.70;;
15848;SDS011;8024;48.708;9.394;2023-04-24T08:41:44;1.37;;;0.80;;
15848;SDS011;8024;48.708;9.394;2023-04-24T08:44:12;2.00;;;0.90;;
15848;SDS011;8024;48.708;9.394;2023-04-24T08:46:41;2.00;;;0.90;;
15848;SDS011;8024;48.708;9.394;2023-04-24T08:49:10;1.37;;;0.80;;
15848;SDS011;8024;48.708;9.394;2023-04-24T08:51:39;1.50;;;0.90;;
15848;SDS011;8024;48.708;9.394;2023-04-24T08:54:06;0.80;;;0.80;;
15848;SDS011;8024;48.708;9.394;2023-04-24T08:56:34;1.53;;;0.67;;
15848;SDS011;8024;48.708;9.394;2023-04-24T08:59:04;0.70;;;0.70;;
15848;SDS011;8024;48.708;9.394;2023-04-24T09:01:32;0.90;;;0.70;;
15848;SDS011;8024;48.708;9.394;2023-04-24T09:04:01;1.07;;;0.83;;
15848;SDS011;8024;48.708;9.394;2023-04-24T09:06:29;1.13;;;0.57;;
15848;SDS011;8024;48.708;9.394;2023-04-24T09:09:00;2.50;;;0.83;;
15848;SDS011;8024;48.708;9.394;2023-04-24T09:11:29;0.70;;;0.70;;
15848;SDS011;8024;48.708;9.394;2023-04-24T09:13:57;1.10;;;0.90;;
15848;SDS011;8024;48.708;9.394;2023-04-24T09:16:25;0.60;;;0.60;;
15848;SDS011;8024;48.708;9.394;2023-04-24T09:18:52;0.70;;;0.70;;
15848;SDS011;8024;48.708;9.394;2023-04-24T09:21:21;0.60;;;0.60;;
15848;SDS011;8024;48.708;9.394;2023-04-24T09:23:57;1.93;;;0.70;;
15848;SDS011;8024;48.708;9.394;2023-04-24T09:26:28;0.50;;;0.50;;
15848;SDS011;8024;48.708;9.394;2023-04-24T09:28:58;1.67;;;0.60;;
15848;SDS011;8024;48.708;9.394;2023-04-24T09:31:26;1.47;;;1.07;;
15848;SDS011;8024;48.708;9.394;2023-04-24T09:33:55;1.30;;;0.77;;
15848;SDS011;8024;48.708;9.394;2023-04-24T09:36:27;1.47;;;0.70;;
15848;SDS011;8024;48.708;9.394;2023-04-24T09:38:57;0.90;;;0.90;;
15848;SDS011;8024;48.708;9.394;2023-04-24T09:41:27;1.47;;;0.80;;
15848;SDS011;8024;48.708;9.394;2023-04-24T09:43:55;2.50;;;0.90;;
15848;SDS011;8024;48.708;9.394;2023-04-24T09:46:29;1.33;;;0.60;;
15848;SDS011;8024;48.708;9.394;2023-04-24T09:48:57;0.60;;;0.60;;
15848;SDS011;8024;48.708;9.394;2023-04-24T09:51:33;1.93;;;0.60;;
15848;SDS011;8024;48.708;9.394;2023-04-24T09:54:04;0.80;;;0.63;;
15848;SDS011;8024;48.708;9.394;2023-04-24T09:56:39;0.80;;;0.63;;
15848;SDS011;8024;48.708;9.394;2023-04-24T09:59:10;1.53;;;0.40;;
15848;SDS011;8024;48.708;9.394;2023-04-24T10:01:37;1.20;;;0.50;;
15848;SDS011;8024;48.708;9.394;2023-04-24T10:04:14;2.43;;;0.60;;
15848;SDS011;8024;48.708;9.394;2023-04-24T10:06:43;0.80;;;0.40;;
15848;SDS011;8024;48.708;9.394;2023-04-24T10:09:11;1.33;;;0.40;;
15848;SDS011;8024;48.708;9.394;2023-04-24T10:11:41;1.97;;;0.37;;
15848;SDS011;8024;48.708;9.394;2023-04-24T10:14:10;1.20;;;0.47;;
15848;SDS011;8024;48.708;9.394;2023-04-24T10:16:39;2.23;;;0.57;;
15848;SDS011;8024;48.708;9.394;2023-04-24T10:19:07;0.57;;;0.57;;
15848;SDS011;8024;48.708;9.394;2023-04-24T10:21:34;0.40;;;0.40;;
15848;SDS011;8024;48.708;9.394;2023-04-24T10:24:03;0.87;;;0.40;;
15848;SDS011;8024;48.708;9.394;2023-04-24T10:26:33;0.50;;;0.50;;
15848;SDS011;8024;48.708;9.394;2023-04-24T10:29:02;0.50;;;0.50;;
15848;SDS011;8024;48.708;9.394;2023-04-24T10:31:34;0.50;;;0.50;;
15848;SDS011;8024;48.708;9.394;2023-04-24T10:34:03;1.23;;;0.30;;
15848;SDS011;8024;48.708;9.394;2023-04-24T10:36:31;1.87;;;0.40;;
15848;SDS011;8024;48.708;9.394;2023-04-24T10:39:00;0.67;;;0.40;;
15848;SDS011;8024;48.708;9.394;2023-04-24T10:41:30;0.40;;;0.40;;
15848;SDS011;8024;48.708;9.394;2023-04-24T10:44:05;0.37;;;0.37;;
15848;SDS011;8024;48.708;9.394;2023-04-24T10:46:33;0.50;;;0.50;;
15848;SDS011;8024;48.708;9.394;2023-04-24T10:49:03;0.30;;;0.30;;
15848;SDS011;8024;48.708;9.394;2023-04-24T10:51:44;1.80;;;0.40;;
15848;SDS011;8024;48.708;9.394;2023-04-24T10:54:25;0.33;;;0.23;;
15848;SDS011;8024;48.708;9.394;2023-04-24T10:56:55;0.67;;;0.30;;
15848;SDS011;8024;48.708;9.394;2023-04-24T11:00:16;0.43;;;0.30;;
15848;SDS011;8024;48.708;9.394;2023-04-24T11:02:46;0.63;;;0.40;;
15848;SDS011;8024;48.708;9.394;2023-04-24T11:05:15;1.90;;;0.70;;
15848;SDS011;8024;48.708;9.394;2023-04-24T11:10:39;1.30;;;0.30;;
15848;SDS011;8024;48.708;9.394;2023-04-24T11:13:07;0.87;;;0.43;;
15848;SDS011;8024;48.708;9.394;2023-04-24T11:15:36;0.30;;;0.30;;
15848;SDS011;8024;48.708;9.394;2023-04-24T11:18:03;0.50;;;0.50;;
15848;SDS011;8024;48.708;9.394;2023-04-24T11:20:30;0.53;;;0.53;;
15848;SDS011;8024;48.708;9.394;2023-04-24T11:22:58;0.60;;;0.60;;
15848;SDS011;8024;48.708;9.394;2023-04-24T11:25:31;0.40;;;0.40;;
15848;SDS011;8024;48.708;9.394;2023-04-24T11:28:05;2.10;;;0.40;;
15848;SDS011;8024;48.708;9.394;2023-04-24T11:30:32;0.50;;;0.40;;
15848;SDS011;8024;48.708;9.394;2023-04-24T11:33:04;1.37;;;0.50;;
15848;SDS011;8024;48.708;9.394;2023-04-24T11:35:34;0.30;;;0.30;;
15848;SDS011;8024;48.708;9.394;2023-04-24T11:38:05;0.30;;;0.30;;
15848;SDS011;8024;48.708;9.394;2023-04-24T11:40:33;0.80;;;0.37;;
15848;SDS011;8024;48.708;9.394;2023-04-24T11:43:00;0.37;;;0.37;;
15848;SDS011;8024;48.708;9.394;2023-04-24T11:45:29;1.23;;;0.40;;
15848;SDS011;8024;48.708;9.394;2023-04-24T11:47:57;1.33;;;0.60;;
15848;SDS011;8024;48.708;9.394;2023-04-24T11:50:26;1.77;;;0.60;;
15848;SDS011;8024;48.708;9.394;2023-04-24T11:52:54;0.50;;;0.50;;
15848;SDS011;8024;48.708;9.394;2023-04-24T11:55:22;1.23;;;0.63;;
15848;SDS011;8024;48.708;9.394;2023-04-24T11:57:52;0.97;;;0.50;;
15848;SDS011;8024;48.708;9.394;2023-04-24T12:00:22;0.30;;;0.30;;
15848;SDS011;8024;48.708;9.394;2023-04-24T12:02:50;0.60;;;0.40;;
15848;SDS011;8024;48.708;9.394;2023-04-24T12:05:20;0.57;;;0.57;;
15848;SDS011;8024;48.708;9.394;2023-04-24T12:07:50;0.50;;;0.50;;
15848;SDS011;8024;48.708;9.394;2023-04-24T12:10:19;0.50;;;0.50;;
15848;SDS011;8024;48.708;9.394;2023-04-24T12:12:47;2.23;;;0.80;;
15848;SDS011;8024;48.708;9.394;2023-04-24T12:15:16;0.90;;;0.40;;
15848;SDS011;8024;48.708;9.394;2023-04-24T12:17:45;0.40;;;0.40;;
15848;SDS011;8024;48.708;9.394;2023-04-24T12:20:12;0.73;;;0.40;;
15848;SDS011;8024;48.708;9.394;2023-04-24T12:22:43;0.47;;;0.47;;
15848;SDS011;8024;48.708;9.394;2023-04-24T12:25:13;0.47;;;0.47;;
15848;SDS011;8024;48.708;9.394;2023-04-24T12:27:41;0.50;;;0.50;;
15848;SDS011;8024;48.708;9.394;2023-04-24T12:30:10;1.03;;;0.53;;
15848;SDS011;8024;48.708;9.394;2023-04-24T12:32:42;0.80;;;0.40;;
15848;SDS011;8024;48.708;9.394;2023-04-24T12:35:11;0.40;;;0.40;;
15848;SDS011;8024;48.708;9.394;2023-04-24T12:37:38;0.50;;;0.50;;
15848;SDS011;8024;48.708;9.394;2023-04-24T12:40:09;0.70;;;0.60;;
15848;SDS011;8024;48.708;9.394;2023-04-24T12:42:43;0.50;;;0.50;;
15848;SDS011;8024;48.708;9.394;2023-04-24T12:45:11;0.50;;;0.50;;
15848;SDS011;8024;48.708;9.394;2023-04-24T12:47:39;0.60;;;0.60;;
15848;SDS011;8024;48.708;9.394;2023-04-24T12:50:07;0.67;;;0.60;;
15848;SDS011;8024;48.708;9.394;2023-04-24T12:52:35;0.80;;;0.80;;
15848;SDS011;8024;48.708;9.394;2023-04-24T12:55:04;1.40;;;0.80;;
15848;SDS011;8024;48.708;9.394;2023-04-24T12:57:33;1.03;;;0.60;;
15848;SDS011;8024;48.708;9.394;2023-04-24T13:00:03;0.50;;;0.50;;
15848;SDS011;8024;48.708;9.394;2023-04-24T13:02:31;1.70;;;0.67;;
15848;SDS011;8024;48.708;9.394;2023-04-24T13:04:59;0.60;;;0.57;;
15848;SDS011;8024;48.708;9.394;2023-04-24T13:07:26;1.23;;;0.70;;
15848;SDS011;8024;48.708;9.394;2023-04-24T13:09:54;0.60;;;0.40;;
15848;SDS011;8024;48.708;9.394;2023-04-24T13:12:21;0.87;;;0.40;;
15848;SDS011;8024;48.708;9.394;2023-04-24T13:14:50;0.40;;;0.40;;
15848;SDS011;8024;48.708;9.394;2023-04-24T13:17:18;4.70;;;1.87;;
15848;SDS011;8024;48.708;9.394;2023-04-24T13:19:46;1.53;;;1.43;;
15848;SDS011;8024;48.708;9.394;2023-04-24T13:22:15;1.60;;;0.73;;
15848;SDS011;8024;48.708;9.394;2023-04-24T13:24:44;1.70;;;0.60;;
15848;SDS011;8024;48.708;9.394;2023-04-24T13:27:13;1.90;;;0.70;;
15848;SDS011;8024;48.708;9.394;2023-04-24T13:29:41;3.30;;;1.30;;
15848;SDS011;8024;48.708;9.394;2023-04-24T13:32:08;0.93;;;0.60;;
15848;SDS011;8024;48.708;9.394;2023-04-24T13:34:37;1.17;;;0.40;;
15848;SDS011;8024;48.708;9.394;2023-04-24T13:37:04;0.97;;;0.60;;
15848;SDS011;8024;48.708;9.394;2023-04-24T13:39:32;0.80;;;0.80;;
15848;SDS011;8024;48.708;9.394;2023-04-24T13:42:00;1.73;;;1.00;;
15848;SDS011;8024;48.708;9.394;2023-04-24T13:44:27;0.87;;;0.87;;
15848;SDS011;8024;48.708;9.394;2023-04-24T13:46:54;0.60;;;0.60;;
15848;SDS011;8024;48.708;9.394;2023-04-24T13:49:23;0.57;;;0.57;;
15848;SDS011;8024;48.708;9.394;2023-04-24T13:51:52;0.80;;;0.80;;
15848;SDS011;8024;48.708;9.394;2023-04-24T13:54:20;1.17;;;0.70;;
15848;SDS011;8024;48.708;9.394;2023-04-24T13:56:48;0.83;;;0.83;;
15848;SDS011;8024;48.708;9.394;2023-04-24T13:59:15;1.27;;;0.70;;
15848;SDS011;8024;48.708;9.394;2023-04-24T14:01:42;0.77;;;0.60;;
15848;SDS011;8024;48.708;9.394;2023-04-24T14:04:10;1.13;;;0.90;;
15848;SDS011;8024;48.708;9.394;2023-04-24T14:06:37;0.90;;;0.90;;
15848;SDS011;8024;48.708;9.394;2023-04-24T14:09:06;0.97;;;0.73;;
15848;SDS011;8024;48.708;9.394;2023-04-24T14:11:33;0.70;;;0.70;;
15848;SDS011;8024;48.708;9.394;2023-04-24T14:14:01;0.80;;;0.80;;
15848;SDS011;8024;48.708;9.394;2023-04-24T14:16:28;0.90;;;0.90;;
15848;SDS011;8024;48.708;9.394;2023-04-24T14:18:55;1.53;;;1.10;;
15848;SDS011;8024;48.708;9.394;2023-04-24T14:21:22;3.77;;;1.13;;
15848;SDS011;8024;48.708;9.394;2023-04-24T14:23:49;1.80;;;1.10;;
15848;SDS011;8024;48.708;9.394;2023-04-24T14:26:18;0.80;;;0.77;;
15848;SDS011;8024;48.708;9.394;2023-04-24T14:28:46;0.77;;;0.67;;
15848;SDS011;8024;48.708;9.394;2023-04-24T14:31:13;1.23;;;1.13;;
15848;SDS011;8024;48.708;9.394;2023-04-24T14:33:41;0.60;;;0.57;;
15848;SDS011;8024;48.708;9.394;2023-04-24T14:36:08;1.20;;;0.90;;
15848;SDS011;8024;48.708;9.394;2023-04-24T14:38:35;0.60;;;0.60;;
15848;SDS011;8024;48.708;9.394;2023-04-24T14:41:02;0.73;;;0.73;;
15848;SDS011;8024;48.708;9.394;2023-04-24T14:43:35;0.93;;;0.70;;
15848;SDS011;8024;48.708;9.394;2023-04-24T14:46:02;1.00;;;0.90;;
15848;SDS011;8024;48.708;9.394;2023-04-24T14:48:30;0.83;;;0.83;;
15848;SDS011;8024;48.708;9.394;2023-04-24T14:50:57;1.10;;;1.10;;
15848;SDS011;8024;48.708;9.394;2023-04-24T14:53:24;1.43;;;0.93;;
15848;SDS011;8024;48.708;9.394;2023-04-24T14:55:51;0.90;;;0.90;;
15848;SDS011;8024;48.708;9.394;2023-04-24T14:58:19;1.00;;;1.00;;
15848;SDS011;8024;48.708;9.394;2023-04-24T15:00:47;1.00;;;1.00;;
15848;SDS011;8024;48.708;9.394;2023-04-24T15:03:17;0.93;;;0.93;;
15848;SDS011;8024;48.708;9.394;2023-04-24T15:05:45;2.17;;;0.90;;
15848;SDS011;8024;48.708;9.394;2023-04-24T15:08:12;1.00;;;1.00;;
15848;SDS011;8024;48.708;9.394;2023-04-24T15:10:41;1.10;;;1.00;;